Time;durP1;ratioP1;P1;durP2;ratioP2;P2;SDS_P1;SDS_P2;PMS_P1;PMS_P2;Temp;Humidity;BMP_temperature;BMP_pressure;BME280_temperature;BME280_humidity;BME280_pressure;Samples;Min_cycle;Max_cycle;Signal;HPM_P1;HPM_P2
2022/09/09 00:01:52;;;;;;;11.27;7.13;;;;;;;19.05;65.08;99921.38;5050035;28;20533;-82
2022/09/09 00:04:28;;;;;;;12.73;7.88;;;;;;;19.10;64.70;99919.34;5050326;28;20067;-81
2022/09/09 00:07:32;;;;;;;12.73;6.85;;;;;;;19.17;64.98;99921.72;5049655;28;20028;-81
2022/09/09 00:10:16;;;;;;;;;;;;;;;19.11;65.22;99925.59;5035591;28;20025;-80
2022/09/09 00:12:55;;;;;;;8.77;6.70;;;;;;;19.13;65.22;99929.03;5070264;28;19924;-80
2022/09/09 00:15:38;;;;;;;9.18;6.18;;;;;;;19.02;65.35;99916.16;5069651;28;20143;-82
2022/09/09 00:18:29;;;;;;;9.57;7.30;;;;;;;19.27;64.74;99931.91;5059260;28;20040;-81
2022/09/09 00:21:06;;;;;;;10.70;7.55;;;;;;;19.12;64.94;99933.53;5069551;28;20040;-81
2022/09/09 00:23:36;;;;;;;10.30;6.88;;;;;;;18.73;65.28;99925.50;5069854;28;20028;-80
2022/09/09 00:26:18;;;;;;;12.38;7.38;;;;;;;18.50;66.88;99932.72;5069779;28;20025;-81
2022/09/09 00:29:00;;;;;;;8.13;6.82;;;;;;;18.15;67.18;99873.72;5069408;28;20031;-80
2022/09/09 00:31:29;;;;;;;9.90;6.82;;;;;;;18.57;66.73;99922.66;5069243;28;20045;-81
2022/09/09 00:34:02;;;;;;;8.75;6.32;;;;;;;18.53;67.07;99908.53;5069835;28;20111;-80
2022/09/09 00:36:30;;;;;;;8.70;6.38;;;;;;;18.43;66.95;99885.88;5069504;28;20036;-81
2022/09/09 00:39:00;;;;;;;8.52;6.35;;;;;;;18.68;66.97;99909.66;5068994;28;20124;-81
2022/09/09 00:41:50;;;;;;;9.48;6.60;;;;;;;18.77;66.93;99930.63;5069693;28;20043;-80
2022/09/09 00:44:36;;;;;;;8.23;5.68;;;;;;;18.60;66.68;99899.31;5069327;28;20089;-80
2022/09/09 00:47:39;;;;;;;10.40;6.13;;;;;;;18.70;67.41;99930.97;5069268;28;20506;-81
2022/09/09 00:50:21;;;;;;;10.73;6.72;;;;;;;18.82;67.28;99951.78;5069017;28;20136;-82
2022/09/09 00:53:12;;;;;;;9.85;5.75;;;;;;;18.75;66.98;99932.50;5069054;28;20032;-80
2022/09/09 00:55:47;;;;;;;8.27;6.30;;;;;;;18.73;67.24;99913.00;5071221;28;20513;-80
2022/09/09 00:58:13;;;;;;;;;;;;;;;18.79;67.07;99926.06;5069450;28;20120;-80
2022/09/09 01:00:51;;;;;;;9.48;5.72;;;;;;;18.72;66.80;99913.94;5069221;28;20358;-79
2022/09/09 01:03:28;;;;;;;7.53;5.45;;;;;;;18.90;67.04;99941.66;5069279;28;20066;-80
2022/09/09 01:06:16;;;;;;;7.57;6.03;;;;;;;18.64;67.01;99932.09;5068290;28;20032;-80
2022/09/09 01:08:47;;;;;;;13.13;6.93;;;;;;;18.33;67.34;99944.13;5069186;28;20048;-81
2022/09/09 01:11:26;;;;;;;11.85;7.18;;;;;;;18.03;67.22;99940.97;5067981;28;20037;-80
2022/09/09 01:14:36;;;;;;;8.02;6.22;;;;;;;17.94;67.74;99912.00;5068612;28;20059;-81
2022/09/09 01:17:09;;;;;;;8.27;6.07;;;;;;;17.97;69.08;99931.41;5060512;28;20041;-81
2022/09/09 01:19:41;;;;;;;10.45;6.05;;;;;;;17.91;69.29;99933.50;5073189;28;20037;-80
2022/09/09 01:22:35;;;;;;;8.90;6.50;;;;;;;18.08;68.99;99937.16;5068804;28;20032;-81
2022/09/09 01:25:37;;;;;;;8.13;6.25;;;;;;;17.99;69.05;99945.56;5081626;28;20043;-81
2022/09/09 01:28:08;;;;;;;9.90;6.63;;;;;;;18.12;69.23;99939.69;5086576;28;20530;-80
2022/09/09 01:30:36;;;;;;;10.40;6.93;;;;;;;17.88;69.26;99894.41;5068245;28;20060;-80
2022/09/09 01:33:02;;;;;;;13.27;6.28;;;;;;;18.20;68.75;99940.28;5068620;28;20422;-81
2022/09/09 01:35:39;;;;;;;13.00;6.65;;;;;;;17.87;68.56;99860.66;5085788;28;20028;-80
2022/09/09 01:38:05;;;;;;;10.05;6.90;;;;;;;18.12;68.57;99905.91;5088230;28;20031;-81
2022/09/09 01:40:32;;;;;;;10.77;6.65;;;;;;;18.28;68.34;99935.47;5088228;28;20036;-80
2022/09/09 01:42:57;;;;;;;7.90;6.32;;;;;;;18.30;68.61;99943.41;5087222;28;20042;-80
2022/09/09 01:45:23;;;;;;;9.38;6.38;;;;;;;17.96;68.70;99905.66;5076320;28;20032;-80
2022/09/09 01:47:51;;;;;;;9.32;6.05;;;;;;;18.21;68.23;99932.19;5078000;28;20047;-80
2022/09/09 01:50:17;;;;;;;7.93;5.45;;;;;;;18.20;67.43;99908.22;5067659;28;20446;-80
2022/09/09 01:52:48;;;;;;;7.07;5.13;;;;;;;18.12;67.86;99913.00;5067945;28;20035;-83
2022/09/09 01:55:15;;;;;;;9.60;5.43;;;;;;;18.21;68.04;99918.84;5073484;28;20028;-80
2022/09/09 01:57:51;;;;;;;9.18;6.00;;;;;;;18.37;67.29;99934.19;5068384;28;20051;-80
2022/09/09 02:00:17;;;;;;;7.57;4.97;;;;;;;18.03;67.61;99912.47;5070281;28;20063;-80
2022/09/09 02:02:51;;;;;;;7.28;5.15;;;;;;;18.07;67.36;99926.56;5088560;28;20532;-79
2022/09/09 02:05:25;;;;;;;8.48;5.43;;;;;;;18.03;67.16;99922.31;5077872;28;20038;-80
2022/09/09 02:08:00;;;;;;;9.02;5.15;;;;;;;17.96;67.09;99913.66;5078035;28;20032;-80
2022/09/09 02:10:36;;;;;;;6.90;5.22;;;;;;;17.99;67.34;99894.84;5068306;28;20032;-80
2022/09/09 02:13:14;;;;;;;8.68;5.25;;;;;;;17.91;67.18;99914.81;5067752;28;20036;-80
2022/09/09 02:16:00;;;;;;;9.45;6.03;;;;;;;18.01;67.26;99942.81;5066634;28;20091;-80
2022/09/09 02:18:44;;;;;;;6.18;4.47;;;;;;;17.97;67.60;99928.75;5067216;28;20040;-80
2022/09/09 02:21:11;;;;;;;10.05;4.22;;;;;;;17.87;67.87;99935.34;5067542;28;20574;-81
2022/09/09 02:23:39;;;;;;;7.32;5.18;;;;;;;17.66;68.11;99883.78;5058458;28;20432;-80
2022/09/09 02:26:07;;;;;;;7.85;5.10;;;;;;;17.85;67.88;99906.06;5087704;28;20110;-80
2022/09/09 02:28:35;;;;;;;7.70;5.07;;;;;;;17.90;68.36;99929.94;5085514;28;20032;-80
2022/09/09 02:31:01;;;;;;;11.15;5.97;;;;;;;17.87;67.78;99892.66;5087416;28;20035;-79
2022/09/09 02:33:34;;;;;;;7.75;5.32;;;;;;;17.83;68.41;99934.63;5081023;28;20032;-80
2022/09/09 02:36:03;;;;;;;9.15;6.07;;;;;;;17.97;67.83;99931.41;5067062;28;20036;-80
2022/09/09 02:38:34;;;;;;;7.50;5.75;;;;;;;17.83;68.10;99912.44;5067308;28;20025;-80
2022/09/09 02:41:01;;;;;;;8.25;5.68;;;;;;;17.72;68.29;99896.84;5067088;28;20032;-82
2022/09/09 02:43:32;;;;;;;7.10;5.65;;;;;;;17.77;67.90;99910.00;5077857;28;20093;-79
2022/09/09 02:46:08;;;;;;;6.90;4.93;;;;;;;17.81;67.46;99925.84;5067223;28;20425;-80
2022/09/09 02:49:06;;;;;;;9.23;5.55;;;;;;;17.67;68.03;99929.06;5067038;28;20036;-81
2022/09/09 02:52:00;;;;;;;8.75;4.72;;;;;;;17.45;68.13;99902.38;5046997;28;20750;-80
2022/09/09 02:54:32;;;;;;;7.43;5.82;;;;;;;17.33;68.57;99919.75;5083104;28;20124;-80
2022/09/09 02:57:10;;;;;;;6.32;4.80;;;;;;;17.15;68.96;99907.13;5087148;28;20035;-80
2022/09/09 02:59:36;;;;;;;9.30;5.47;;;;;;;17.06;68.46;99923.47;5086588;28;20035;-78
2022/09/09 03:02:02;;;;;;;10.55;5.80;;;;;;;16.94;69.72;99933.66;5071005;28;20035;-79
2022/09/09 03:04:28;;;;;;;8.48;5.30;;;;;;;17.02;69.79;99924.50;5066967;28;20037;-78
2022/09/09 03:06:53;;;;;;;8.52;5.30;;;;;;;17.09;69.73;99931.34;5079874;28;20565;-79
2022/09/09 03:09:19;;;;;;;7.72;5.30;;;;;;;16.98;69.59;99924.63;5076773;28;20060;-79
2022/09/09 03:11:44;;;;;;;8.00;5.53;;;;;;;16.99;69.39;99915.72;5066656;28;20550;-81
2022/09/09 03:14:11;;;;;;;7.55;5.50;;;;;;;16.90;69.92;99909.84;5085910;28;20418;-80
2022/09/09 03:16:39;;;;;;;7.95;4.78;;;;;;;16.92;70.32;99922.19;5086517;28;20123;-81
2022/09/09 03:19:04;;;;;;;9.25;5.03;;;;;;;17.02;69.89;99913.84;5067376;28;20056;-80
2022/09/09 03:21:29;;;;;;;9.85;6.00;;;;;;;16.85;70.15;99878.00;5068389;28;20078;-79
2022/09/09 03:23:55;;;;;;;9.27;5.65;;;;;;;17.33;69.54;99943.75;5086794;28;20020;-80
2022/09/09 03:26:21;;;;;;;6.75;4.88;;;;;;;17.29;69.85;99943.91;5086854;28;20058;-79
2022/09/09 03:28:46;;;;;;;7.57;4.97;;;;;;;17.14;69.97;99916.91;5063134;28;20536;-79
2022/09/09 03:31:12;;;;;;;8.23;5.55;;;;;;;17.12;69.79;99932.09;5074503;28;20115;-79
2022/09/09 03:33:38;;;;;;;14.27;5.57;;;;;;;17.08;70.02;99934.94;5079883;28;20036;-79
2022/09/09 03:36:04;;;;;;;10.75;6.70;;;;;;;17.14;70.48;99943.56;5086566;28;20054;-79
2022/09/09 03:38:30;;;;;;;8.40;6.57;;;;;;;16.81;70.79;99901.25;5074463;28;20038;-79
2022/09/09 03:40:57;;;;;;;7.97;5.93;;;;;;;17.05;70.82;99941.25;5086898;28;20028;-78
2022/09/09 03:43:26;;;;;;;8.05;6.10;;;;;;;17.29;70.46;99952.78;5085943;28;20033;-79
2022/09/09 03:45:52;;;;;;;8.85;5.72;;;;;;;17.36;69.88;99932.06;5101901;28;20088;-80
2022/09/09 03:48:18;;;;;;;7.82;6.40;;;;;;;17.39;70.22;99955.06;5097596;28;20024;-79
2022/09/09 03:50:49;;;;;;;9.85;7.38;;;;;;;17.32;70.13;99947.31;5081093;28;20036;-79
2022/09/09 03:53:17;;;;;;;16.85;6.63;;;;;;;17.18;70.70;99950.50;5087568;28;20120;-80
2022/09/09 03:55:47;;;;;;;10.68;6.85;;;;;;;17.16;70.64;99946.16;5089287;28;20038;-80
2022/09/09 03:58:14;;;;;;;13.48;8.57;;;;;;;17.11;71.07;99942.81;5066669;28;20040;-79
2022/09/09 04:00:44;;;;;;;15.65;8.73;;;;;;;16.81;72.58;99965.19;5099279;28;20051;-79
2022/09/09 04:03:11;;;;;;;13.50;8.02;;;;;;;17.14;71.77;99951.56;5106746;28;20114;-79
2022/09/09 04:05:39;;;;;;;14.90;7.75;;;;;;;16.91;71.83;99925.78;5106881;28;20127;-79
2022/09/09 04:08:08;;;;;;;12.50;8.55;;;;;;;17.02;71.28;99933.38;5106729;28;20036;-79
2022/09/09 04:10:36;;;;;;;15.23;8.70;;;;;;;16.83;72.05;99927.84;5071359;28;20059;-81
2022/09/09 04:13:03;;;;;;;13.40;8.32;;;;;;;17.02;71.88;99932.50;5086134;28;20028;-79
2022/09/09 04:15:30;;;;;;;17.92;9.27;;;;;;;17.29;71.16;99946.59;5078047;28;20111;-79
2022/09/09 04:17:55;;;;;;;10.35;7.82;;;;;;;17.34;71.29;99942.78;5066214;28;20055;-79
2022/09/09 04:20:21;;;;;;;12.95;8.70;;;;;;;17.27;71.94;99954.63;5065382;28;20037;-79
2022/09/09 04:22:47;;;;;;;11.30;8.68;;;;;;;17.26;71.80;99933.38;5066039;28;20025;-79
2022/09/09 04:25:13;;;;;;;11.57;8.80;;;;;;;17.36;71.53;99940.94;5066235;28;20129;-80
2022/09/09 04:27:38;;;;;;;13.90;10.70;;;;;;;17.45;71.40;99965.50;5064123;28;20067;-78
2022/09/09 04:30:04;;;;;;;13.27;8.40;;;;;;;17.23;70.73;99925.50;5064508;28;20032;-77
2022/09/09 04:32:32;;;;;;;14.07;9.05;;;;;;;17.32;71.15;99952.66;5065006;28;20037;-79
2022/09/09 04:34:58;;;;;;;13.55;9.02;;;;;;;17.33;70.50;99937.50;5064824;28;20158;-79
2022/09/09 04:37:24;;;;;;;12.93;7.93;;;;;;;17.58;70.46;99965.88;5071536;28;20128;-79
2022/09/09 04:39:50;;;;;;;13.02;8.35;;;;;;;17.39;70.75;99947.09;5064375;28;20792;-79
2022/09/09 04:42:17;;;;;;;12.82;8.18;;;;;;;17.26;71.58;99942.22;5069315;28;20093;-79
2022/09/09 04:44:43;;;;;;;12.02;9.90;;;;;;;17.45;71.49;99961.03;5069585;28;20036;-79
2022/09/09 04:47:09;;;;;;;12.95;9.73;;;;;;;17.52;71.57;99954.53;5067587;28;20736;-79
2022/09/09 04:49:36;;;;;;;23.08;10.50;;;;;;;17.50;72.19;99952.84;5068581;28;20085;-80
2022/09/09 04:52:03;;;;;;;11.98;9.35;;;;;;;17.47;72.78;99950.31;5069050;28;20036;-80
2022/09/09 04:54:29;;;;;;;12.90;8.70;;;;;;;17.65;72.53;99975.38;5068166;28;20114;-81
2022/09/09 04:56:54;;;;;;;13.57;8.65;;;;;;;17.71;71.54;99949.31;5073266;28;20032;-81
2022/09/09 04:59:21;;;;;;;12.55;8.18;;;;;;;17.82;71.06;99953.38;5089694;28;20413;-80
2022/09/09 05:01:47;;;;;;;13.32;7.93;;;;;;;18.12;70.94;99982.41;5075514;28;20031;-81
2022/09/09 05:04:15;;;;;;;11.40;9.20;;;;;;;18.19;71.21;99991.91;5068961;28;20119;-79
2022/09/09 05:06:40;;;;;;;14.45;10.13;;;;;;;17.97;71.14;99974.13;5067844;28;20079;-81
2022/09/09 05:09:06;;;;;;;13.57;10.20;;;;;;;17.79;70.99;99958.81;5068159;28;20064;-80
2022/09/09 05:11:35;;;;;;;14.40;10.50;;;;;;;17.79;71.97;99999.72;5068795;28;20028;-80
2022/09/09 05:14:02;;;;;;;14.15;10.57;;;;;;;17.75;72.39;99967.88;5068785;28;20067;-81
2022/09/09 05:16:28;;;;;;;12.27;10.43;;;;;;;17.64;71.45;99920.28;5068253;28;20036;-80
2022/09/09 05:18:54;;;;;;;14.23;10.13;;;;;;;18.06;70.42;99947.06;5068911;28;20051;-80
2022/09/09 05:21:21;;;;;;;13.57;10.25;;;;;;;18.59;69.12;99966.19;5068462;28;20044;-81
2022/09/09 05:23:46;;;;;;;13.38;10.18;;;;;;;18.56;68.81;99961.81;5067749;28;20044;-81
2022/09/09 05:26:14;;;;;;;12.52;9.90;;;;;;;18.86;66.84;99968.59;5068803;28;20047;-79
2022/09/09 05:28:40;;;;;;;12.00;9.38;;;;;;;18.80;66.63;99964.38;5067979;28;20072;-79
2022/09/09 05:31:08;;;;;;;14.25;9.57;;;;;;;19.12;66.52;99948.69;5068026;28;20459;-80
2022/09/09 05:33:35;;;;;;;13.27;7.93;;;;;;;19.34;65.08;99932.53;5066836;28;20032;-80
2022/09/09 05:36:07;;;;;;;9.88;6.97;;;;;;;19.63;63.71;99973.03;5066586;28;20036;-80
2022/09/09 05:38:33;;;;;;;8.55;6.45;;;;;;;19.66;62.40;99936.31;5052309;28;20419;-79
2022/09/09 05:41:00;;;;;;;15.55;6.22;;;;;;;20.15;61.46;99985.72;5058741;28;20423;-80
2022/09/09 05:43:29;;;;;;;8.73;7.30;;;;;;;19.84;60.77;99955.97;5049549;28;20101;-81
2022/09/09 05:46:10;;;;;;;10.75;7.25;;;;;;;19.99;60.14;99980.28;5048453;28;20032;-83
2022/09/09 05:48:42;;;;;;;7.50;5.97;;;;;;;19.73;61.03;99957.44;5047365;28;20414;-81
2022/09/09 05:51:24;;;;;;;8.95;5.18;;;;;;;20.12;58.88;99965.31;5046725;28;20124;-81
2022/09/09 05:53:55;;;;;;;9.65;5.35;;;;;;;20.42;58.28;99969.19;5062866;28;20035;-81
2022/09/09 05:56:23;;;;;;;6.63;5.13;;;;;;;20.62;57.63;99949.38;5067742;28;20052;-81
2022/09/09 05:58:49;;;;;;;9.32;6.72;;;;;;;21.06;56.96;99965.81;5056522;28;20415;-81
2022/09/09 06:01:16;;;;;;;10.02;7.15;;;;;;;21.24;56.54;99976.47;5064310;28;20045;-82
2022/09/09 06:03:44;;;;;;;11.30;5.50;;;;;;;21.39;56.30;99964.03;5057427;28;20028;-81
2022/09/09 06:06:13;;;;;;;8.48;6.53;;;;;;;21.15;56.27;99956.41;5066283;28;20040;-81
2022/09/09 06:08:40;;;;;;;11.75;6.53;;;;;;;21.39;56.30;99981.00;5067114;28;20497;-81
2022/09/09 06:11:09;;;;;;;10.88;6.65;;;;;;;21.48;55.61;99951.94;5067906;28;20033;-81
2022/09/09 06:13:37;;;;;;;10.50;6.80;;;;;;;21.68;54.50;99964.28;5067366;28;20035;-81
2022/09/09 06:16:02;;;;;;;10.85;6.22;;;;;;;21.75;54.92;99942.34;5067485;28;20028;-80
2022/09/09 06:18:29;;;;;;;9.32;6.45;;;;;;;21.96;54.62;99921.41;5081914;28;20063;-80
2022/09/09 06:21:00;;;;;;;9.60;5.45;;;;;;;22.83;53.09;99960.16;5069741;28;20474;-82
2022/09/09 06:23:26;;;;;;;9.40;6.25;;;;;;;22.70;51.88;99927.75;5067469;28;20024;-82
2022/09/09 06:26:17;;;;;;;11.70;5.65;;;;;;;23.15;51.07;99945.69;5053456;28;20413;-80
2022/09/09 06:28:45;;;;;;;7.97;5.65;;;;;;;23.74;49.90;99949.03;5067370;28;20426;-81
2022/09/09 06:31:12;;;;;;;8.55;5.60;;;;;;;23.40;50.12;99927.00;5079731;28;20032;-81
2022/09/09 06:33:40;;;;;;;8.25;5.45;;;;;;;23.75;49.89;99953.44;5073053;28;20866;-81
2022/09/09 06:36:10;;;;;;;8.73;6.07;;;;;;;23.70;50.11;99949.34;5066558;28;20029;-82
2022/09/09 06:38:36;;;;;;;8.32;4.88;;;;;;;23.72;49.85;99925.84;5067528;28;20040;-84
2022/09/09 06:41:02;;;;;;;8.93;5.70;;;;;;;23.99;48.76;99919.63;5049544;28;20028;-81
2022/09/09 06:43:28;;;;;;;14.18;6.75;;;;;;;23.79;49.59;99951.44;5067698;28;20039;-84
2022/09/09 06:45:58;;;;;;;10.25;6.28;;;;;;;23.08;50.95;99934.41;5066942;28;20029;-83
2022/09/09 06:48:25;;;;;;;17.48;6.80;;;;;;;23.17;52.92;99938.38;5067210;28;20124;-81
2022/09/09 06:51:08;;;;;;;8.52;5.68;;;;;;;23.13;50.92;99926.09;5066973;28;20036;-82
2022/09/09 06:53:35;;;;;;;8.93;5.88;;;;;;;23.70;51.19;99949.34;5067265;28;20461;-84
2022/09/09 06:56:02;;;;;;;8.05;5.30;;;;;;;24.46;49.48;99962.19;5049508;28;20632;-84
2022/09/09 06:58:28;;;;;;;6.10;4.60;;;;;;;24.27;47.65;99957.22;5067134;28;20039;-81
2022/09/09 07:01:07;;;;;;;6.97;4.25;;;;;;;24.04;48.77;99957.91;5067172;28;20206;-81
2022/09/09 07:03:33;;;;;;;6.13;4.47;;;;;;;24.27;49.57;99965.28;5066486;28;20115;-81
2022/09/09 07:05:59;;;;;;;8.88;4.45;;;;;;;24.37;48.26;99946.66;5066360;28;20033;-83
2022/09/09 07:08:26;;;;;;;7.03;4.97;;;;;;;24.60;47.94;99958.56;5066650;28;20035;-85
2022/09/09 07:10:55;;;;;;;7.85;4.40;;;;;;;24.42;47.25;99939.13;5066743;28;20084;-82
2022/09/09 07:13:25;;;;;;;12.30;4.82;;;;;;;25.03;46.36;99966.34;5066913;28;20032;-81
2022/09/09 07:15:51;;;;;;;7.70;5.22;;;;;;;25.24;45.58;99968.50;5067126;28;20044;-80
2022/09/09 07:18:17;;;;;;;6.47;4.18;;;;;;;24.77;46.52;99953.84;5048400;28;20045;-80
2022/09/09 07:20:42;;;;;;;6.70;4.65;;;;;;;24.71;44.86;99921.91;5066755;28;20115;-80
2022/09/09 07:23:08;;;;;;;14.80;5.30;;;;;;;25.24;45.83;99935.25;5066836;28;20036;-81
2022/09/09 07:25:33;;;;;;;6.40;4.50;;;;;;;25.78;44.31;99956.50;5066771;28;20029;-80
2022/09/09 07:27:59;;;;;;;5.97;4.15;;;;;;;26.02;43.37;99925.94;5066792;28;20032;-82
2022/09/09 07:30:24;;;;;;;5.38;4.22;;;;;;;26.54;45.05;99948.09;5048659;28;20430;-81
2022/09/09 07:32:51;;;;;;;7.43;3.55;;;;;;;26.78;42.46;99946.19;5066671;28;20036;-82
2022/09/09 07:35:17;;;;;;;5.78;3.80;;;;;;;25.94;41.59;99941.84;5066850;28;20112;-81
2022/09/09 07:37:43;;;;;;;9.15;3.90;;;;;;;25.67;44.50;99937.53;5066471;28;20162;-83
2022/09/09 07:40:10;;;;;;;7.45;4.93;;;;;;;25.28;43.47;99929.50;5066692;28;20025;-81
2022/09/09 07:42:36;;;;;;;5.97;4.32;;;;;;;25.21;43.83;99925.53;5066766;28;20557;-80
2022/09/09 07:45:01;;;;;;;9.27;4.80;;;;;;;25.54;44.52;99942.97;5066764;28;20115;-81
2022/09/09 07:47:27;;;;;;;9.98;4.63;;;;;;;25.64;42.49;99943.16;5066159;28;20135;-80
2022/09/09 07:49:52;;;;;;;11.27;4.28;;;;;;;25.35;43.44;99922.72;5066581;28;20029;-81
2022/09/09 07:52:19;;;;;;;7.10;4.53;;;;;;;25.66;44.89;99952.88;5066530;28;20028;-81
2022/09/09 07:54:45;;;;;;;7.93;5.70;;;;;;;26.25;41.62;99879.09;5066225;28;20085;-80
2022/09/09 07:57:12;;;;;;;9.20;4.70;;;;;;;27.18;39.95;99925.91;5066534;28;20107;-80
2022/09/09 07:59:38;;;;;;;9.98;4.45;;;;;;;27.47;39.83;99930.84;5066489;28;20658;-81
2022/09/09 08:02:03;;;;;;;6.20;4.38;;;;;;;27.72;41.57;99910.72;5066171;28;20036;-81
2022/09/09 08:04:29;;;;;;;8.10;5.15;;;;;;;27.85;39.72;99918.66;5066518;28;20816;-81
2022/09/09 08:06:57;;;;;;;7.65;4.65;;;;;;;27.94;39.10;99915.19;5065657;28;20057;-82
2022/09/09 08:09:26;;;;;;;8.10;4.47;;;;;;;27.31;40.45;99898.69;5066942;28;20060;-81
2022/09/09 08:11:52;;;;;;;6.68;5.18;;;;;;;27.46;40.48;99856.00;5066279;28;20024;-81
2022/09/09 08:14:17;;;;;;;7.50;5.10;;;;;;;27.86;38.02;99902.28;5066687;28;20028;-80
2022/09/09 08:16:45;;;;;;;8.23;6.15;;;;;;;27.98;37.99;99896.84;5070019;28;20040;-83
2022/09/09 08:19:11;;;;;;;6.65;4.95;;;;;;;28.43;37.76;99925.59;5070416;28;20059;-82
2022/09/09 08:21:40;;;;;;;7.95;4.60;;;;;;;28.57;38.59;99892.69;5069947;28;20028;-81
2022/09/09 08:24:06;;;;;;;9.43;4.60;;;;;;;28.82;39.22;99882.41;5069949;28;20050;-81
2022/09/09 08:26:37;;;;;;;7.10;4.88;;;;;;;28.97;38.25;99921.78;5069892;28;20037;-81
2022/09/09 08:29:04;;;;;;;11.18;6.80;;;;;;;28.63;38.13;99853.34;5069949;28;20142;-82
2022/09/09 08:31:33;;;;;;;6.85;4.63;;;;;;;28.17;38.52;99888.84;5069693;28;20036;-81
2022/09/09 08:33:59;;;;;;;5.68;4.57;;;;;;;27.86;39.39;99901.44;5052178;28;20029;-81
2022/09/09 08:36:27;;;;;;;6.43;4.43;;;;;;;27.73;40.51;99893.47;5069704;28;20037;-83
2022/09/09 08:38:54;;;;;;;10.07;4.82;;;;;;;27.99;39.58;99894.03;5069961;28;20036;-80
2022/09/09 08:41:53;;;;;;;9.15;5.50;;;;;;;27.76;43.53;99911.31;5069746;28;20028;-81
2022/09/09 08:44:44;;;;;;;7.20;5.22;;;;;;;27.98;39.53;99886.00;5069540;28;20040;-81
2022/09/09 08:47:20;;;;;;;7.53;5.38;;;;;;;28.07;40.48;99896.06;5069441;28;20041;-81
2022/09/09 08:49:51;;;;;;;8.07;5.05;;;;;;;27.84;41.87;99901.56;5068661;28;20040;-82
2022/09/09 08:52:23;;;;;;;6.95;4.63;;;;;;;27.52;41.57;99875.28;5068903;28;20036;-81
2022/09/09 08:54:50;;;;;;;9.57;4.88;;;;;;;28.04;40.26;99904.47;5068613;28;20024;-81
2022/09/09 08:57:23;;;;;;;6.05;4.65;;;;;;;27.85;40.97;99884.31;5069476;28;20032;-82
2022/09/09 08:59:50;;;;;;;6.75;3.80;;;;;;;27.95;41.25;99884.41;5069347;28;20036;-81
2022/09/09 09:03:01;;;;;;;8.85;4.95;;;;;;;27.99;40.03;99893.13;5069110;28;20027;-81
2022/09/09 09:05:37;;;;;;;6.85;4.63;;;;;;;27.37;43.73;99881.13;5005530;28;20065;-81
2022/09/09 09:08:24;;;;;;;9.68;5.18;;;;;;;27.92;40.63;99871.09;5060457;28;20135;-83
2022/09/09 09:10:53;;;;;;;7.05;5.75;;;;;;;28.23;40.44;99880.19;5050666;28;20055;-82
2022/09/09 09:13:41;;;;;;;6.32;4.30;;;;;;;28.20;39.70;99876.91;5069152;28;20601;-83
2022/09/09 09:16:21;;;;;;;6.95;4.70;;;;;;;27.88;41.14;99891.31;5051083;28;20045;-85
2022/09/09 09:18:47;;;;;;;5.95;4.38;;;;;;;27.63;40.35;99822.91;5068896;28;20053;-86
2022/09/09 09:21:21;;;;;;;10.10;5.50;;;;;;;28.17;40.52;99877.16;5050411;28;20028;-83
2022/09/09 09:24:00;;;;;;;9.18;5.82;;;;;;;27.56;40.21;99838.00;5068800;28;20036;-83
2022/09/09 09:26:32;;;;;;;11.27;4.78;;;;;;;27.95;40.83;99868.16;5068111;28;20070;-83
2022/09/09 09:28:59;;;;;;;6.65;4.65;;;;;;;28.00;41.45;99865.03;5068987;28;20060;-85
2022/09/09 09:31:26;;;;;;;9.05;4.95;;;;;;;27.95;40.80;99846.47;5068622;28;20145;-82
2022/09/09 09:33:54;;;;;;;8.38;5.03;;;;;;;28.20;40.02;99822.66;5068484;28;20029;-82
2022/09/09 09:36:41;;;;;;;7.63;4.78;;;;;;;28.26;40.72;99846.53;5068627;28;20517;-81
2022/09/09 09:39:07;;;;;;;8.25;4.63;;;;;;;27.91;42.82;99838.69;5068189;28;20037;-81
2022/09/09 09:41:38;;;;;;;11.02;5.53;;;;;;;28.23;41.51;99838.66;5068346;28;20043;-81
2022/09/09 09:44:07;;;;;;;8.15;4.82;;;;;;;28.43;40.26;99825.22;5068585;28;20036;-81
2022/09/09 09:46:32;;;;;;;9.50;4.47;;;;;;;28.56;39.02;99809.56;5068404;28;20134;-80
2022/09/09 09:49:05;;;;;;;6.00;4.30;;;;;;;28.58;39.05;99832.91;5068512;28;20108;-80
2022/09/09 09:51:32;;;;;;;10.18;4.13;;;;;;;28.02;40.27;99816.97;5049851;28;20437;-80
2022/09/09 09:54:31;;;;;;;7.25;5.25;;;;;;;27.43;40.93;99824.59;5068201;28;20115;-80
2022/09/09 09:57:11;;;;;;;7.28;5.00;;;;;;;27.91;40.14;99828.69;5048069;28;20131;-81
2022/09/09 09:59:39;;;;;;;11.13;5.70;;;;;;;27.87;40.06;99821.84;5068483;28;20039;-80
2022/09/09 10:02:13;;;;;;;6.70;4.35;;;;;;;27.99;41.18;99820.81;5068013;28;20499;-79
2022/09/09 10:04:39;;;;;;;7.10;4.00;;;;;;;27.91;40.31;99788.03;5063755;28;20044;-81
2022/09/09 10:07:20;;;;;;;10.82;4.85;;;;;;;27.48;40.99;99799.84;5068233;28;20032;-81
2022/09/09 10:09:52;;;;;;;8.23;4.75;;;;;;;27.70;40.58;99788.06;5070244;28;20025;-83
2022/09/09 10:12:37;;;;;;;6.85;4.70;;;;;;;28.09;40.10;99793.78;5071198;28;20031;-81
2022/09/09 10:15:08;;;;;;;8.85;4.75;;;;;;;28.56;39.23;99805.00;5070905;28;20600;-80
2022/09/09 10:17:43;;;;;;;6.15;3.95;;;;;;;28.08;39.17;99805.59;5077237;28;20040;-82
2022/09/09 10:20:32;;;;;;;9.25;5.25;;;;;;;27.89;40.53;99803.59;5091026;28;20028;-81
2022/09/09 10:23:10;;;;;;;9.38;5.82;;;;;;;28.38;40.00;99790.38;5091509;28;20032;-80
2022/09/09 10:26:03;;;;;;;7.97;4.70;;;;;;;28.38;39.66;99787.66;5091873;28;20032;-80
2022/09/09 10:28:50;;;;;;;5.63;4.03;;;;;;;28.48;38.82;99780.41;5091415;28;20035;-81
2022/09/09 10:31:20;;;;;;;6.07;4.00;;;;;;;28.56;39.63;99783.31;5091437;28;20024;-82
2022/09/09 10:33:58;;;;;;;8.75;4.28;;;;;;;28.11;39.24;99759.25;5091051;28;20481;-82
2022/09/09 10:36:24;;;;;;;5.32;3.88;;;;;;;28.35;39.93;99787.94;5090890;28;20040;-82
2022/09/09 10:38:57;;;;;;;4.88;3.40;;;;;;;28.55;38.65;99756.31;5090980;28;20418;-81
2022/09/09 10:41:44;;;;;;;7.22;4.10;;;;;;;28.50;40.02;99759.44;5092187;28;20032;-82
2022/09/09 10:44:25;;;;;;;7.18;3.60;;;;;;;28.31;39.19;99741.22;5091674;28;20038;-82
2022/09/09 10:46:53;;;;;;;6.38;3.97;;;;;;;28.78;38.81;99784.13;5091364;28;20024;-81
2022/09/09 10:49:30;;;;;;;7.07;3.95;;;;;;;29.00;39.62;99752.31;5095640;28;20035;-83
2022/09/09 10:52:13;;;;;;;8.43;3.75;;;;;;;28.85;39.05;99770.84;5111921;28;20031;-82
2022/09/09 10:55:09;;;;;;;6.88;3.10;;;;;;;28.93;39.28;99776.44;5111972;28;20028;-82
2022/09/09 10:57:47;;;;;;;5.25;3.33;;;;;;;28.80;38.04;99768.56;5111989;28;20034;-81
2022/09/09 11:00:45;;;;;;;4.15;3.28;;;;;;;28.83;39.14;99741.13;5111953;28;20059;-81
2022/09/09 11:03:19;;;;;;;5.18;3.65;;;;;;;28.85;38.75;99730.16;5093497;28;20032;-81
2022/09/09 11:06:17;;;;;;;7.10;3.40;;;;;;;29.00;38.40;99750.47;5111224;28;20497;-83
2022/09/09 11:08:42;;;;;;;4.30;3.20;;;;;;;29.25;37.93;99731.94;5105329;28;20043;-81
2022/09/09 11:11:19;;;;;;;5.90;3.60;;;;;;;28.89;39.47;99715.31;5111679;28;20028;-81
2022/09/09 11:14:11;;;;;;;6.75;3.40;;;;;;;29.22;38.84;99745.81;5100511;28;20446;-83
2022/09/09 11:16:50;;;;;;;5.53;3.90;;;;;;;29.45;39.29;99746.38;5052972;28;20043;-82
2022/09/09 11:19:21;;;;;;;6.22;4.65;;;;;;;29.11;38.84;99693.28;5071094;28;20072;-83
2022/09/09 11:21:49;;;;;;;8.55;4.57;;;;;;;29.07;39.12;99731.75;5070789;28;20525;-83
2022/09/09 11:24:21;;;;;;;4.25;3.20;;;;;;;29.52;37.83;99725.78;5070679;28;20040;-80
2022/09/09 11:27:03;;;;;;;6.03;3.90;;;;;;;29.42;38.95;99731.22;5071012;28;20123;-83
2022/09/09 11:29:47;;;;;;;5.22;3.17;;;;;;;28.92;38.79;99706.88;5070711;28;20506;-82
2022/09/09 11:32:18;;;;;;;5.28;3.28;;;;;;;29.19;38.70;99736.03;5071261;28;20052;-82
2022/09/09 11:34:43;;;;;;;27.98;25.55;;;;;;;29.37;38.59;99722.66;5052404;28;20388;-82
2022/09/09 11:37:37;;;;;;;12.95;11.52;;;;;;;29.29;38.00;99708.94;5090464;28;20077;-82
2022/09/09 11:40:19;;;;;;;6.57;4.75;;;;;;;29.13;39.05;99717.59;5111190;28;20032;-82
2022/09/09 11:42:45;;;;;;;4.55;2.88;;;;;;;29.11;39.80;99662.59;5076229;28;20032;-83
2022/09/09 11:45:25;;;;;;;10.02;4.20;;;;;;;29.25;39.59;99708.34;5071901;28;20531;-83
2022/09/09 11:47:53;;;;;;;4.30;3.03;;;;;;;29.29;38.02;99703.50;5090896;28;20028;-82
2022/09/09 11:50:18;;;;;;;7.28;3.35;;;;;;;29.46;38.69;99704.63;5096422;28;20057;-82
2022/09/09 11:52:49;;;;;;;5.45;3.50;;;;;;;29.75;37.23;99709.16;5115502;28;20073;-81
2022/09/09 11:55:34;;;;;;;5.55;3.95;;;;;;;29.58;37.03;99700.75;5107899;28;20174;-81